Time;durP1;ratioP1;P1;durP2;ratioP2;P2;SDS_P1;SDS_P2;PMS_P1;PMS_P2;Temp;Humidity;BMP_temperature;BMP_pressure;BME280_temperature;BME280_humidity;BME280_pressure;Samples;Min_cycle;Max_cycle;Signal;HPM_P1;HPM_P2
2021/04/11 00:01:03;;;;;;;60.78;32.00;;;;;;;;;;4986753;28;20329;-48
2021/04/11 00:03:29;;;;;;;53.33;27.85;;;;;;;;;;4986566;28;20925;-48
2021/04/11 00:05:56;;;;;;;50.75;25.10;;;;;;;;;;4986852;28;20026;-48
2021/04/11 00:08:22;;;;;;;52.33;26.08;;;;;;;;;;4986783;28;20025;-47
2021/04/11 00:10:50;;;;;;;43.75;22.23;;;;;;;;;;4986997;28;20037;-47
2021/04/11 00:13:18;;;;;;;62.90;33.00;;;;;;;;;;4987002;28;20034;-48
2021/04/11 00:15:47;;;;;;;39.05;20.55;;;;;;;;;;4986621;28;20313;-47
2021/04/11 00:18:13;;;;;;;38.70;21.77;;;;;;;;;;4986501;28;20097;-47
2021/04/11 00:20:42;;;;;;;41.97;22.80;;;;;;;;;;4986801;28;20108;-47
2021/04/11 00:23:08;;;;;;;49.00;26.17;;;;;;;;;;4986281;28;20113;-48
2021/04/11 00:25:35;;;;;;;35.47;19.67;;;;;;;;;;4986449;28;20042;-47
2021/04/11 00:28:04;;;;;;;39.50;20.45;;;;;;;;;;4986525;28;20084;-48
2021/04/11 00:30:30;;;;;;;43.90;21.50;;;;;;;;;;4986510;28;20164;-47
2021/04/11 00:33:01;;;;;;;40.33;21.98;;;;;;;;;;4986280;28;20132;-48
2021/04/11 00:35:27;;;;;;;44.87;23.20;;;;;;;;;;4986924;28;20026;-48
2021/04/11 00:37:53;;;;;;;52.00;28.75;;;;;;;;;;4986728;28;20030;-47
2021/04/11 00:40:27;;;;;;;40.95;21.90;;;;;;;;;;4990510;28;20026;-48
2021/04/11 00:42:58;;;;;;;43.20;24.48;;;;;;;;;;4990065;28;20828;-48
2021/04/11 00:45:28;;;;;;;54.97;28.80;;;;;;;;;;4990516;28;20577;-48
2021/04/11 00:47:55;;;;;;;60.30;31.13;;;;;;;;;;4990149;28;20637;-48
2021/04/11 00:50:22;;;;;;;45.08;26.92;;;;;;;;;;4990188;28;20392;-47
2021/04/11 00:52:48;;;;;;;41.88;24.65;;;;;;;;;;4978051;28;20445;-48
2021/04/11 00:55:15;;;;;;;41.75;23.20;;;;;;;;;;4989918;28;20026;-47
2021/04/11 00:57:43;;;;;;;47.78;26.67;;;;;;;;;;4989898;28;20508;-49
2021/04/11 01:00:09;;;;;;;62.97;34.28;;;;;;;;;;4989893;28;20026;-47
2021/04/11 01:02:38;;;;;;;57.63;31.70;;;;;;;;;;4989460;28;20026;-48
2021/04/11 01:05:07;;;;;;;58.15;32.75;;;;;;;;;;4990139;28;20525;-47
2021/04/11 01:07:33;;;;;;;55.83;30.40;;;;;;;;;;4989893;28;20029;-48
2021/04/11 01:09:59;;;;;;;51.60;28.70;;;;;;;;;;4989757;28;20014;-47
2021/04/11 01:12:25;;;;;;;46.15;27.08;;;;;;;;;;4990217;28;20056;-47
2021/04/11 01:14:56;;;;;;;49.95;29.15;;;;;;;;;;4989843;28;20130;-47
2021/04/11 01:17:22;;;;;;;56.90;31.02;;;;;;;;;;4989440;28;20046;-47
2021/04/11 01:19:51;;;;;;;68.88;36.13;;;;;;;;;;4989808;28;20146;-47
2021/04/11 01:22:30;;;;;;;66.88;31.17;;;;;;;;;;4989649;28;20061;-47
2021/04/11 01:24:58;;;;;;;50.47;30.10;;;;;;;;;;4989548;28;20048;-47
2021/04/11 01:27:32;;;;;;;59.25;33.17;;;;;;;;;;4989615;28;20239;-46
2021/04/11 01:29:58;;;;;;;64.32;34.08;;;;;;;;;;4989666;28;20133;-47
2021/04/11 01:32:24;;;;;;;53.75;29.58;;;;;;;;;;4989661;28;20018;-47
2021/04/11 01:34:55;;;;;;;58.55;29.95;;;;;;;;;;4989342;28;20753;-47
2021/04/11 01:37:21;;;;;;;59.63;32.53;;;;;;;;;;4989506;28;20939;-47
2021/04/11 01:39:47;;;;;;;73.97;37.83;;;;;;;;;;4989157;28;20022;-48
2021/04/11 01:42:14;;;;;;;89.03;48.42;;;;;;;;;;4989118;28;21079;-50
2021/04/11 01:44:43;;;;;;;91.68;48.03;;;;;;;;;;4989084;28;20030;-48
2021/04/11 01:47:12;;;;;;;58.05;30.65;;;;;;;;;;4988823;28;20022;-48
2021/04/11 01:49:38;;;;;;;51.95;29.70;;;;;;;;;;4987806;28;20058;-47
2021/04/11 01:52:08;;;;;;;35.80;21.48;;;;;;;;;;4988523;28;20026;-47
2021/04/11 01:54:35;;;;;;;47.67;26.00;;;;;;;;;;4999960;28;20025;-48
2021/04/11 01:57:08;;;;;;;51.92;26.75;;;;;;;;;;5015354;28;20371;-48
2021/04/11 01:59:34;;;;;;;37.45;20.83;;;;;;;;;;5015552;28;20022;-48
2021/04/11 02:02:00;;;;;;;49.80;26.85;;;;;;;;;;5015497;28;20156;-47
2021/04/11 02:04:27;;;;;;;46.90;24.23;;;;;;;;;;5015377;28;20102;-48
2021/04/11 02:06:56;;;;;;;51.42;24.42;;;;;;;;;;5015253;28;20552;-48
2021/04/11 02:09:24;;;;;;;50.83;23.98;;;;;;;;;;5015343;28;20022;-50
2021/04/11 02:11:50;;;;;;;37.22;20.63;;;;;;;;;;5015412;28;20048;-47
2021/04/11 02:14:17;;;;;;;40.60;20.95;;;;;;;;;;5015218;28;20050;-48
2021/04/11 02:16:43;;;;;;;39.53;21.63;;;;;;;;;;5014977;28;20037;-47
2021/04/11 02:19:15;;;;;;;49.28;25.70;;;;;;;;;;5014952;28;20034;-47
2021/04/11 02:21:41;;;;;;;50.88;25.95;;;;;;;;;;5015514;28;20551;-47
2021/04/11 02:24:08;;;;;;;44.83;23.70;;;;;;;;;;5014951;28;20030;-47
2021/04/11 02:26:35;;;;;;;34.95;18.85;;;;;;;;;;5014953;28;20026;-47
2021/04/11 02:29:04;;;;;;;33.58;20.30;;;;;;;;;;5014928;28;20037;-47
2021/04/11 02:31:30;;;;;;;38.58;21.75;;;;;;;;;;5014916;28;20030;-47
2021/04/11 02:33:56;;;;;;;48.28;22.58;;;;;;;;;;5014933;28;20101;-47
2021/04/11 02:36:22;;;;;;;58.40;32.05;;;;;;;;;;5014674;28;20121;-47
2021/04/11 02:38:51;;;;;;;50.25;25.52;;;;;;;;;;5014678;28;20164;-47
2021/04/11 02:41:18;;;;;;;35.70;20.65;;;;;;;;;;5014654;28;20499;-47
2021/04/11 02:43:44;;;;;;;40.42;18.75;;;;;;;;;;5014864;28;20389;-47
2021/04/11 02:46:11;;;;;;;35.97;18.92;;;;;;;;;;5014709;28;20101;-47
2021/04/11 02:48:37;;;;;;;40.28;18.13;;;;;;;;;;5014196;28;20061;-47
2021/04/11 02:51:04;;;;;;;32.30;17.17;;;;;;;;;;5014623;28;20029;-47
2021/04/11 02:53:31;;;;;;;34.58;16.75;;;;;;;;;;5014451;28;20033;-47
2021/04/11 02:55:57;;;;;;;31.85;15.65;;;;;;;;;;5014440;28;20036;-47
2021/04/11 02:58:24;;;;;;;27.80;15.65;;;;;;;;;;5014665;28;20033;-48
2021/04/11 03:00:51;;;;;;;37.72;18.48;;;;;;;;;;5014132;28;20080;-47
2021/04/11 03:03:18;;;;;;;32.17;16.33;;;;;;;;;;5014141;28;20029;-47
2021/04/11 03:05:44;;;;;;;28.58;15.70;;;;;;;;;;5014245;28;20022;-47
2021/04/11 03:08:13;;;;;;;30.02;15.90;;;;;;;;;;5014082;28;20017;-48
2021/04/11 03:10:43;;;;;;;31.33;17.52;;;;;;;;;;5014412;28;20033;-48
2021/04/11 03:13:10;;;;;;;31.38;16.80;;;;;;;;;;5014130;28;20604;-48
2021/04/11 03:15:36;;;;;;;29.20;15.45;;;;;;;;;;5014042;28;20073;-48
2021/04/11 03:18:03;;;;;;;32.08;16.48;;;;;;;;;;5013731;28;20543;-48
2021/04/11 03:20:32;;;;;;;34.25;16.75;;;;;;;;;;5014014;28;20121;-48
2021/04/11 03:22:58;;;;;;;33.17;16.70;;;;;;;;;;5013921;28;20069;-48
2021/04/11 03:25:28;;;;;;;31.33;17.45;;;;;;;;;;5013993;28;20113;-48
2021/04/11 03:27:57;;;;;;;34.13;19.50;;;;;;;;;;5014035;28;20408;-48
2021/04/11 03:30:46;;;;;;;45.45;19.73;;;;;;;;;;5013950;28;20488;-48
2021/04/11 03:33:14;;;;;;;27.17;13.82;;;;;;;;;;4915340;29;20044;-49
2021/04/11 03:35:42;;;;;;;27.45;16.38;;;;;;;;;;4915455;29;20048;-49
2021/04/11 03:38:09;;;;;;;30.42;16.08;;;;;;;;;;4915202;28;20040;-48
2021/04/11 03:40:38;;;;;;;32.30;16.63;;;;;;;;;;4915306;29;20035;-48
2021/04/11 03:43:15;;;;;;;31.25;16.38;;;;;;;;;;4915337;29;20063;-48
2021/04/11 03:45:41;;;;;;;39.22;19.40;;;;;;;;;;4915207;29;20123;-47
2021/04/11 03:48:16;;;;;;;37.97;19.33;;;;;;;;;;4915051;29;20039;-48
2021/04/11 03:50:49;;;;;;;36.10;17.58;;;;;;;;;;4915103;29;20052;-47
2021/04/11 03:53:18;;;;;;;43.17;20.88;;;;;;;;;;4915260;29;20039;-48
2021/04/11 03:55:46;;;;;;;46.17;20.77;;;;;;;;;;4915039;29;20423;-47
2021/04/11 03:58:14;;;;;;;34.97;19.73;;;;;;;;;;4915285;29;20129;-47
2021/04/11 04:00:47;;;;;;;36.65;18.02;;;;;;;;;;4915107;29;20029;-47
2021/04/11 04:03:18;;;;;;;40.92;17.33;;;;;;;;;;4914929;29;20080;-47
2021/04/11 04:05:44;;;;;;;39.27;22.43;;;;;;;;;;4915053;29;20035;-48
2021/04/11 04:08:10;;;;;;;40.88;22.92;;;;;;;;;;4915080;29;20021;-47
2021/04/11 04:10:38;;;;;;;41.75;21.42;;;;;;;;;;4979136;28;20061;-47
2021/04/11 04:13:08;;;;;;;41.35;21.27;;;;;;;;;;5013898;28;20424;-47
2021/04/11 04:15:43;;;;;;;35.55;17.52;;;;;;;;;;5017378;28;20105;-47
2021/04/11 04:18:18;;;;;;;32.10;18.08;;;;;;;;;;5017115;28;20489;-48
2021/04/11 04:20:50;;;;;;;34.17;18.35;;;;;;;;;;5017383;28;20034;-47
2021/04/11 04:23:39;;;;;;;34.58;18.33;;;;;;;;;;5017269;28;20026;-48
2021/04/11 04:26:23;;;;;;;39.83;19.17;;;;;;;;;;5017191;28;20137;-48
2021/04/11 04:28:52;;;;;;;44.83;20.70;;;;;;;;;;5017243;28;20026;-47
2021/04/11 04:31:18;;;;;;;37.63;21.38;;;;;;;;;;5017039;28;20061;-47
2021/04/11 04:34:08;;;;;;;36.58;21.48;;;;;;;;;;5016943;28;20037;-47
2021/04/11 04:37:07;;;;;;;36.53;22.10;;;;;;;;;;5017123;28;20203;-48
2021/04/11 04:39:51;;;;;;;39.78;20.52;;;;;;;;;;4918473;29;20044;-48
2021/04/11 04:42:26;;;;;;;44.35;20.35;;;;;;;;;;4918326;29;20136;-48
2021/04/11 04:44:52;;;;;;;43.20;21.90;;;;;;;;;;4918381;29;20103;-48
2021/04/11 04:47:24;;;;;;;36.05;19.50;;;;;;;;;;4918243;29;20032;-48
2021/04/11 04:50:08;;;;;;;39.60;20.50;;;;;;;;;;4917949;29;20044;-49
2021/04/11 04:52:34;;;;;;;40.92;21.23;;;;;;;;;;4918126;29;20034;-48
2021/04/11 04:55:10;;;;;;;45.75;22.73;;;;;;;;;;4918321;29;20036;-47
2021/04/11 04:57:47;;;;;;;34.17;19.38;;;;;;;;;;4918096;29;20047;-48
2021/04/11 05:00:36;;;;;;;39.63;21.08;;;;;;;;;;4918194;29;20036;-48
2021/04/11 05:03:15;;;;;;;43.53;23.40;;;;;;;;;;4917987;29;20060;-48
2021/04/11 05:05:45;;;;;;;39.35;20.80;;;;;;;;;;4918282;29;20096;-48
2021/04/11 05:08:19;;;;;;;38.85;20.25;;;;;;;;;;4918159;28;20040;-49
2021/04/11 05:10:48;;;;;;;27.15;15.85;;;;;;;;;;4917956;29;20028;-49
2021/04/11 05:13:24;;;;;;;27.48;18.38;;;;;;;;;;4917919;29;20042;-49
2021/04/11 05:15:54;;;;;;;33.67;20.55;;;;;;;;;;4995136;28;20486;-48
2021/04/11 05:18:25;;;;;;;39.10;21.90;;;;;;;;;;5016159;28;20128;-49
2021/04/11 05:21:08;;;;;;;39.58;21.45;;;;;;;;;;5016214;28;20376;-49
2021/04/11 05:23:48;;;;;;;44.65;24.00;;;;;;;;;;5016162;28;20409;-49
2021/04/11 05:26:17;;;;;;;46.30;22.40;;;;;;;;;;5015944;28;20444;-48
2021/04/11 05:29:02;;;;;;;51.20;28.52;;;;;;;;;;5016275;28;20022;-49
2021/04/11 05:31:30;;;;;;;45.28;22.98;;;;;;;;;;5015987;28;20101;-49
2021/04/11 05:33:57;;;;;;;50.20;22.48;;;;;;;;;;5016030;28;20029;-49
2021/04/11 05:36:25;;;;;;;48.08;22.00;;;;;;;;;;5015976;28;20117;-49
2021/04/11 05:38:59;;;;;;;42.90;20.02;;;;;;;;;;5016359;28;20057;-49
2021/04/11 05:41:41;;;;;;;44.83;21.40;;;;;;;;;;5016117;28;20045;-49
2021/04/11 05:44:24;;;;;;;43.22;21.33;;;;;;;;;;5016052;28;20049;-50
2021/04/11 05:46:58;;;;;;;39.90;21.48;;;;;;;;;;5015969;28;20022;-48
2021/04/11 05:49:29;;;;;;;35.22;19.88;;;;;;;;;;5015353;28;20054;-49
2021/04/11 05:51:55;;;;;;;;;;;;;;;;;;5016259;28;20029;-49
2021/04/11 05:54:25;;;;;;;29.73;17.45;;;;;;;;;;5015827;28;20419;-49
2021/04/11 05:56:53;;;;;;;32.22;18.95;;;;;;;;;;5015466;28;20033;-49
2021/04/11 05:59:23;;;;;;;30.83;17.45;;;;;;;;;;5015590;28;20022;-49
2021/04/11 06:01:57;;;;;;;30.67;16.60;;;;;;;;;;5015455;28;20057;-49
2021/04/11 06:04:31;;;;;;;25.48;16.50;;;;;;;;;;5015371;28;20022;-48
2021/04/11 06:07:00;;;;;;;29.48;17.30;;;;;;;;;;5015387;28;20077;-47
2021/04/11 06:09:32;;;;;;;26.77;17.65;;;;;;;;;;5015204;28;20040;-48
2021/04/11 06:12:13;;;;;;;38.75;23.27;;;;;;;;;;5015259;28;20068;-48
2021/04/11 06:14:42;;;;;;;32.45;21.45;;;;;;;;;;5015139;28;20109;-48
2021/04/11 06:17:10;;;;;;;31.25;21.40;;;;;;;;;;4997451;28;20030;-48
2021/04/11 06:19:36;;;;;;;31.85;21.65;;;;;;;;;;5014884;28;20421;-50
2021/04/11 06:22:05;;;;;;;33.40;20.50;;;;;;;;;;5014969;28;20474;-48
2021/04/11 06:24:37;;;;;;;26.58;17.45;;;;;;;;;;5014997;28;20033;-49
2021/04/11 06:27:07;;;;;;;25.77;16.60;;;;;;;;;;5014801;28;20116;-48
2021/04/11 06:29:36;;;;;;;23.13;15.90;;;;;;;;;;5014862;28;20022;-48
2021/04/11 06:32:14;;;;;;;27.85;17.40;;;;;;;;;;5014756;28;20496;-51
2021/04/11 06:34:48;;;;;;;27.45;18.08;;;;;;;;;;5014632;28;20033;-48
2021/04/11 06:37:19;;;;;;;25.48;18.02;;;;;;;;;;5013868;28;20045;-49
2021/04/11 06:39:46;;;;;;;34.70;20.75;;;;;;;;;;5014479;28;20143;-49
2021/04/11 06:42:41;;;;;;;21.70;14.75;;;614.50;614.40;;;;;;5014625;28;20030;-49
2021/04/11 06:45:13;;;;;;;25.83;16.02;;;;;;;;;;4916119;29;20044;-49
2021/04/11 06:48:03;;;;;;;26.17;14.93;;;538.20;716.80;;;;;;4915942;29;20433;-49
2021/04/11 06:50:48;;;;;;;24.10;16.25;;;538.10;691.20;;;;;;4915869;29;20044;-49
2021/04/11 06:53:31;;;;;;;80.00;47.15;;;537.60;691.20;;;;;;4915834;29;20029;-48
2021/04/11 06:56:00;;;;;;;39.22;23.60;;;;;;;;;;4915583;28;20083;-52
2021/04/11 06:58:26;;;;;;;37.50;20.60;;;;;;;;;;4915799;29;20556;-55
2021/04/11 07:00:54;;;;;;;28.80;17.35;;;;;;;;;;4915514;29;20032;-51
2021/04/11 07:03:41;;;;;;;26.52;15.98;;;;;;;;;;4914890;29;20401;-52
2021/04/11 07:06:25;;;;;;;28.55;15.77;;;;;;;;;;4896569;29;20072;-51
2021/04/11 07:09:10;;;;;;;29.65;15.25;;;;;;;;;;4896670;29;20432;-52
2021/04/11 07:11:36;;;;;;;25.35;15.50;;;;;;;;;;4896743;29;20133;-51
2021/04/11 07:14:21;;;;;;;25.30;15.00;;;;;;;;;;4896615;29;20029;-50
2021/04/11 07:17:02;;;;;;;28.23;17.05;;;;;;;;;;4896532;29;20080;-51
2021/04/11 07:19:44;;;;;;;27.52;15.75;;;;;;;;;;4896272;29;20104;-51
2021/04/11 07:22:13;;;;;;;37.47;17.77;;;;;;;;;;4969871;28;20037;-50
2021/04/11 07:24:48;;;;;;;46.83;20.77;;;;;;;;;;4994240;28;20118;-51
2021/04/11 07:27:14;;;;;;;36.53;16.00;;;;;;;;;;4993991;28;20466;-52
2021/04/11 07:29:40;;;;;;;32.75;17.30;;;;;;;;;;4994012;28;20042;-51
2021/04/11 07:32:22;;;;;;;38.65;18.75;;;;;;;;;;4993823;28;20031;-51
2021/04/11 07:34:57;;;;;;;23.65;14.95;;;;;;;;;;5005080;28;20026;-52
2021/04/11 07:37:26;;;;;;;26.73;12.23;;;;;;;;;;5013374;28;20045;-50
2021/04/11 07:40:07;;;;;;;29.08;14.88;;;;;;;;;;5013359;28;20112;-52
2021/04/11 07:42:34;;;;;;;;;;;;;;;;;;5013871;28;20358;-52
2021/04/11 07:45:03;;;;;;;21.80;10.85;;;;;;;;;;5013349;28;19914;-53
2021/04/11 07:47:48;;;;;;;16.20;9.95;;;;;;;;;;5013306;28;20034;-53
2021/04/11 07:50:16;;;;;;;17.95;10.55;;;;;;;;;;5012766;28;20060;-55
2021/04/11 07:53:03;;;;;;;17.98;9.48;;;;;;;;;;5013329;28;20088;-54
2021/04/11 07:55:35;;;;;;;13.88;9.23;;;;;;;;;;5013215;28;20014;-54
2021/04/11 07:58:01;;;;;;;18.23;9.85;;;;;;;;;;5013406;28;20038;-53
2021/04/11 08:00:46;;;;;;;17.77;9.98;;;;;;;;;;5013345;28;20029;-53
2021/04/11 08:03:27;;;;;;;22.30;10.15;;;;;;;;;;5013180;28;20026;-53
2021/04/11 08:05:53;;;;;;;;;;;;;;;;;;4993893;28;20032;-52
2021/04/11 08:08:30;;;;;;;20.70;10.90;;;;;;;;;;4993808;28;19953;-52
2021/04/11 08:10:56;;;;;;;175.10;129.73;;;;;;;;;;4993470;28;20030;-52
2021/04/11 08:13:34;;;;;;;22.77;12.65;;;;;;;;;;4993635;28;20101;-52
2021/04/11 08:16:05;;;;;;;26.20;11.52;;;;;;;;;;4993551;28;20030;-54
2021/04/11 08:18:46;;;;;;;22.13;11.73;;;;;;;;;;4993209;28;20037;-53
2021/04/11 08:21:17;;;;;;;20.67;11.32;;;;;;;;;;4993601;28;20030;-52
2021/04/11 08:24:01;;;;;;;18.73;9.35;;;;;;;;;;4993439;28;20033;-52
2021/04/11 08:26:36;;;;;;;18.95;11.48;;;;;;;;;;4993406;28;20529;-55
2021/04/11 08:29:38;;;;;;;18.70;9.88;;;;;;;;;;4993327;28;20077;-53
2021/04/11 08:32:19;;;;;;;30.08;12.90;;;;;;;;;;4933583;29;20423;-54
2021/04/11 08:34:54;;;;;;;23.45;11.93;;;;;;;;;;4943959;29;20062;-56
2021/04/11 08:37:25;;;;;;;38.63;10.80;;;;;;;;;;4952531;29;20485;-54
2021/04/11 08:40:06;;;;;;;15.23;9.52;;;;;;;;;;4952475;28;20039;-54
2021/04/11 08:42:42;;;;;;;20.80;9.65;;;;;;;;;;4952433;28;20515;-55
2021/04/11 08:45:11;;;;;;;42.38;23.70;;;;;;;;;;4952379;28;20035;-53
2021/04/11 08:47:48;;;;;;;20.25;10.98;;;;;;;;;;4952468;29;20039;-58
2021/04/11 08:50:32;;;;;;;39.47;21.45;;;;;;;;;;4952127;29;20059;-54
2021/04/11 08:53:09;;;;;;;12.23;7.13;;;;;;;;;;4952461;29;20050;-53
2021/04/11 08:55:38;;;;;;;12.32;7.43;;;;;;;;;;4952579;28;20412;-53
2021/04/11 08:58:18;;;;;;;16.40;8.07;;;;;;;;;;4951901;29;20094;-54
2021/04/11 09:00:50;;;;;;;22.35;12.02;;;;;;;;;;4955238;28;20562;-53
2021/04/11 09:03:16;;;;;;;;;;;;;;;;;;4956475;29;20101;-54
2021/04/11 09:05:54;;;;;;;32.83;14.98;;;;;;;;;;4970439;28;20365;-52
2021/04/11 09:08:26;;;;;;;16.08;8.65;;;;;;;;;;5006004;28;20030;-52
2021/04/11 09:11:05;;;;;;;17.20;9.57;;;;;;;;;;5007158;28;20061;-53
2021/04/11 09:13:55;;;;;;;24.58;12.52;;;563.70;665.60;;;;;;5016316;28;20026;-54
2021/04/11 09:16:41;;;;;;;17.50;10.25;;;563.50;665.60;;;;;;4998278;28;20790;-52
2021/04/11 09:19:22;;;;;;;22.42;12.57;;;563.40;691.20;;;;;;4989335;28;20060;-51
2021/04/11 09:21:54;;;;;;;;;;;563.40;691.20;;;;;;4990218;28;20034;-51
2021/04/11 09:24:25;;;;;;;20.58;11.95;;;538.50;640.00;;;;;;4989572;28;19956;-51
2021/04/11 09:27:03;;;;;;;;;;;538.30;665.60;;;;;;4977123;28;20026;-52
2021/04/11 09:29:44;;;;;;;18.88;10.23;;;538.20;665.60;;;;;;4989154;28;19913;-52
2021/04/11 09:32:34;;;;;;;;;;;537.80;691.20;;;;;;4989875;28;20147;-52
2021/04/11 09:35:29;;;;;;;17.42;9.60;;;538.10;691.20;;;;;;4988520;28;20039;-53
2021/04/11 09:38:29;;;;;;;17.98;8.95;;;537.80;716.80;;;;;;4988371;28;20042;-52
2021/04/11 09:41:17;;;;;;;17.60;10.20;;;538.00;691.20;;;;;;4988635;28;20029;-53
2021/04/11 09:44:09;;;;;;;18.23;9.90;;;538.10;665.60;;;;;;4988549;28;20509;-53
2021/04/11 09:46:47;;;;;;;17.38;10.05;;;538.20;691.20;;;;;;4988636;28;20557;-53
2021/04/11 09:49:40;;;;;;;23.42;7.68;;;538.00;691.20;;;;;;4988054;28;20149;-53
2021/04/11 09:52:29;;;;;;;15.45;7.15;;;537.70;691.20;;;;;;4988012;28;20117;-53
2021/04/11 09:55:05;;;;;;;11.90;6.00;;;512.90;665.60;;;;;;4988145;28;20080;-53
2021/04/11 09:57:52;;;;;;;11.80;7.28;;;512.90;665.60;;;;;;4988920;28;21513;-52
2021/04/11 10:00:26;;;;;;;15.63;7.82;;;512.70;691.20;;;;;;4988817;28;20033;-52
2021/04/11 10:02:55;;;;;;;27.67;14.23;;;512.80;665.60;;;;;;4989131;28;20043;-52
2021/04/11 10:05:48;;;;;;;20.67;12.68;;;537.60;716.80;;;;;;4988662;28;20057;-51
2021/04/11 10:08:49;;;;;;;14.88;8.75;;;537.60;691.20;;;;;;4976002;28;20053;-52
2021/04/11 10:11:44;;;;;;;16.98;10.00;;;537.70;691.20;;;;;;4866894;29;20056;-52
2021/04/11 10:14:43;;;;;;;16.48;8.52;;;512.70;665.60;;;;;;4868016;29;20139;-53
2021/04/11 10:17:09;;;;;;;17.08;7.38;;;512.60;665.60;;;;;;4867584;29;20250;-51
2021/04/11 10:19:41;;;;;;;22.08;7.63;;;512.70;665.60;;;;;;4867500;29;20072;-56
2021/04/11 10:22:15;;;;;;;14.73;6.72;;;512.70;665.60;;;;;;4867864;29;20544;-52
2021/04/11 10:24:45;;;;;;;18.05;5.95;;;512.60;691.20;;;;;;4867195;29;20050;-56
2021/04/11 10:27:41;;;;;;;16.38;6.45;;;512.70;691.20;;;;;;4866873;29;20044;-52
2021/04/11 10:30:11;;;;;;;14.82;7.28;;;512.60;691.20;;;;;;4867057;29;20036;-50
2021/04/11 10:32:52;;;;;;;12.43;5.82;;;512.60;691.20;;;;;;4867519;29;20208;-52
2021/04/11 10:35:26;;;;;;;;;;;512.90;665.60;;;;;;4867960;29;20096;-51
2021/04/11 10:38:12;;;;;;;23.98;7.40;;;512.60;665.60;;;;;;4866190;29;21452;-51
2021/04/11 10:41:03;;;;;;;22.08;12.82;;;537.60;691.20;;;;;;4867407;29;20041;-52
2021/04/11 10:44:00;;;;;;;12.85;6.25;;;537.60;716.80;;;;;;4867330;29;20147;-53
2021/04/11 10:46:55;;;;;;;12.38;6.90;;;512.90;665.60;;;;;;4902242;28;20057;-53
2021/04/11 10:49:27;;;;;;;18.27;7.20;;;512.70;691.20;;;;;;4918784;29;20124;-53
2021/04/11 10:52:12;;;;;;;15.68;6.95;;;512.70;691.20;;;;;;4918661;29;20052;-54
2021/04/11 10:54:46;;;;;;;9.30;5.53;;;512.80;665.60;;;;;;4918516;29;20130;-50
2021/04/11 10:57:31;;;;;;;15.50;5.88;;;512.60;665.60;;;;;;4918895;29;20098;-55
2021/04/11 11:00:25;;;;;;;9.93;5.55;;;512.80;691.20;;;;;;4918632;29;20042;-54
2021/04/11 11:03:34;;;;;;;13.15;4.88;;;512.80;665.60;;;;;;4918973;29;20558;-50
2021/04/11 11:06:05;;;;;;;;;;;512.90;665.60;;;;;;4913637;29;20419;-53
2021/04/11 11:08:36;;;;;;;11.77;5.57;;;512.60;665.60;;;;;;4918694;29;19946;-55
2021/04/11 11:11:23;;;;;;;17.85;6.10;;;512.80;691.20;;;;;;4918361;29;20035;-51
2021/04/11 11:14:06;;;;;;;11.07;5.75;;;512.60;665.60;;;;;;4918493;29;20219;-51
2021/04/11 11:16:37;;;;;;;9.27;6.15;;;;;;;;;;4918930;29;21680;-55
2021/04/11 11:19:36;;;;;;;22.95;12.23;;;;;;;;;;4918074;29;20830;-50
2021/04/11 11:22:36;;;;;;;15.40;5.15;;;;;;;;;;4833034;29;20037;-50
2021/04/11 11:25:13;;;;;;;11.73;5.53;;;;;;;;;;4778130;29;20041;-49
2021/04/11 11:27:45;;;;;;;15.45;8.05;;;;;;;;;;4778452;29;20053;-51
2021/04/11 11:30:14;;;;;;;12.02;5.20;;;;;;;;;;4777722;29;20114;-50
2021/04/11 11:32:52;;;;;;;10.80;4.53;;;;;;;;;;4778022;29;20046;-51
2021/04/11 11:35:18;;;;;;;6.18;3.08;;;;;;;;;;4777899;29;20058;-50
2021/04/11 11:38:03;;;;;;;10.98;4.60;;;;;;;;;;4777872;29;20153;-51
2021/04/11 11:40:48;;;;;;;22.77;8.80;;;;;;;;;;4777993;29;20035;-50
2021/04/11 11:43:20;;;;;;;17.60;5.78;;;;;;;;;;4777886;29;20043;-50
2021/04/11 11:45:51;;;;;;;7.07;3.50;;;;;;;;;;4777670;29;20085;-50
2021/04/11 11:48:17;;;;;;;;;;;;;;;;;;4778066;29;20489;-50
2021/04/11 11:50:56;;;;;;;13.25;5.28;;;;;;;;;;4777158;29;19925;-50
2021/04/11 11:53:48;;;;;;;15.70;5.13;;;;;;;;;;4777571;29;20117;-50
2021/04/11 11:56:19;;;;;;;26.10;16.60;;;;;;;;;;4771762;29;20050;-50
2021/04/11 11:58:51;;;;;;;21.42;9.65;;;;;;;;;;4881733;29;20052;-50
2021/04/11 12:01:24;;;;;;;20.58;11.27;;;;;;;;;;4930990;28;20033;-56
2021/04/11 12:03:50;;;;;;;18.33;12.10;;;;;;;;;;4986993;28;20030;-54
2021/04/11 12:06:16;;;;;;;37.30;19.80;;;;;;;;;;4986869;28;20030;-49
2021/04/11 12:08:42;;;;;;;17.85;10.45;;;;;;;;;;4986622;28;20065;-56
2021/04/11 12:11:12;;;;;;;19.20;9.57;;;;;;;;;;4986685;28;20048;-51
2021/04/11 12:13:55;;;;;;;17.58;7.88;;;;;;;;;;4986550;28;20493;-49
2021/04/11 12:16:25;;;;;;;25.77;9.38;;;;;;;;;;4986714;28;20038;-51
2021/04/11 12:18:51;;;;;;;21.27;8.10;;;;;;;;;;4986656;28;20030;-50
2021/04/11 12:21:33;;;;;;;11.98;5.50;;;;;;;;;;4986812;28;20064;-51
2021/04/11 12:24:02;;;;;;;10.93;5.68;;;;;;;;;;4986435;28;20029;-53
2021/04/11 12:26:32;;;;;;;19.58;7.18;;;;;;;;;;4986315;28;20026;-51
2021/04/11 12:29:09;;;;;;;22.67;11.35;;;;;;;;;;4986312;28;20033;-53
2021/04/11 12:31:46;;;;;;;16.02;7.20;;;;;;;;;;4986570;28;20045;-53
2021/04/11 12:34:31;;;;;;;18.73;9.90;;;;;;;;;;4987123;28;20039;-52
2021/04/11 12:36:57;;;;;;;33.83;22.23;;;;;;;;;;4990211;28;20034;-53
2021/04/11 12:39:25;;;;;;;32.65;20.63;;;;;;;;;;4990365;28;20029;-52
2021/04/11 12:41:57;;;;;;;26.88;16.38;;;;;;;;;;4990412;28;20789;-52
2021/04/11 12:44:26;;;;;;;51.88;29.00;;;;;;;;;;4990198;28;20087;-53
2021/04/11 12:47:11;;;;;;;26.08;14.48;;;;;;;;;;4990361;28;20025;-53
2021/04/11 12:49:45;;;;;;;52.03;30.80;;;;;;;;;;4989646;28;20044;-52
2021/04/11 12:52:29;;;;;;;12.50;6.85;;;;;;;;;;4990033;28;20030;-53
2021/04/11 12:55:21;;;;;;;19.52;11.00;;;;;;;;;;4990148;28;20037;-51
2021/04/11 12:58:02;;;;;;;21.30;12.43;;;;;;;;;;4897525;29;20048;-51
2021/04/11 13:00:28;;;;;;;;;;;;;;;;;;4897784;29;20040;-51
2021/04/11 13:02:54;;;;;;;37.67;23.00;;;;;;;;;;4898019;29;20485;-52
2021/04/11 13:05:20;;;;;;;137.55;81.93;;;;;;;;;;4897578;29;20087;-52
2021/04/11 13:08:05;;;;;;;30.58;9.43;;;;;;;;;;4897320;29;20127;-54
2021/04/11 13:10:37;;;;;;;52.70;21.23;;;;;;;;;;4897191;29;20753;-53
2021/04/11 13:13:21;;;;;;;24.50;10.25;;;;;;;;;;4897520;29;20024;-54
2021/04/11 13:16:00;;;;;;;30.63;16.73;;;;;;;;;;4897585;29;20111;-52
2021/04/11 13:18:32;;;;;;;18.65;9.85;;;;;;;;;;4897355;29;20078;-53
2021/04/11 13:21:08;;;;;;;21.08;9.48;;;;;;;;;;4878240;29;20404;-56
2021/04/11 13:23:43;;;;;;;20.83;9.70;;;;;;;;;;4897498;29;20034;-53
2021/04/11 13:26:18;;;;;;;36.72;23.65;;;;;;;;;;4897363;29;20035;-53
2021/04/11 13:28:49;;;;;;;36.97;21.48;;;;;;;;;;4897124;29;20055;-54
2021/04/11 13:31:18;;;;;;;20.95;11.63;;;;;;;;;;4897047;29;20051;-53
2021/04/11 13:34:00;;;;;;;22.48;9.95;;;;;;;;;;4902648;28;20038;-53
2021/04/11 13:36:41;;;;;;;33.92;19.92;;;;;;;;;;4988806;28;20057;-53
2021/04/11 13:39:14;;;;;;;27.38;14.45;;;;;;;;;;4989564;28;20072;-53
2021/04/11 13:41:49;;;;;;;33.40;22.30;;;;;;;;;;4989215;28;20037;-53
2021/04/11 13:44:15;;;;;;;28.67;15.45;;;;;;;;;;4989214;28;20034;-53
2021/04/11 13:46:41;;;;;;;26.80;16.27;;;;;;;;;;4989313;28;20726;-54
2021/04/11 13:49:10;;;;;;;22.15;14.02;;;;;;;;;;4988660;28;20632;-53
2021/04/11 13:51:55;;;;;;;34.33;18.52;;;;;;;;;;4988547;28;20029;-52
2021/04/11 13:54:21;;;;;;;37.10;22.20;;;;;;;;;;4988643;28;20030;-54
2021/04/11 13:56:53;;;;;;;31.38;20.30;;;;;;;;;;4987508;28;20030;-52
2021/04/11 13:59:26;;;;;;;40.70;24.13;;;;;;;;;;4988874;28;20032;-52
2021/04/11 14:01:55;;;;;;;32.75;20.17;;;;;;;;;;4989103;28;20030;-52
2021/04/11 14:04:28;;;;;;;55.33;38.35;;;;;;;;;;4971584;28;20603;-50
2021/04/11 14:07:10;;;;;;;36.05;21.80;;;;;;;;;;4988716;28;20100;-50
2021/04/11 14:09:39;;;;;;;80.65;49.33;;;;;;;;;;4988844;28;20029;-52
2021/04/11 14:12:11;;;;;;;66.30;40.80;;;;;;;;;;4988391;28;20026;-50
2021/04/11 14:14:52;;;;;;;76.13;44.33;;;;;;;;;;4988470;28;20156;-48
2021/04/11 14:17:18;;;;;;;;;;;;;;;;;;4989228;28;20084;-50
2021/04/11 14:19:51;;;;;;;48.55;26.98;;;;;;;;;;4988228;28;19917;-49
2021/04/11 14:22:19;;;;;;;64.47;34.88;;;;;;;;;;4988329;28;20434;-49
2021/04/11 14:25:00;;;;;;;47.10;26.13;;;;;;;;;;4988420;28;20034;-49
2021/04/11 14:27:29;;;;;;;46.67;27.67;;;;;;;;;;4988438;28;20029;-48
2021/04/11 14:30:17;;;;;;;91.85;58.30;;;;;;;;;;4976047;28;20807;-49
2021/04/11 14:33:03;;;;;;;42.85;25.63;;;;;;;;;;4988037;28;21121;-49
2021/04/11 14:35:48;;;;;;;79.45;49.80;;;;;;;;;;4988075;28;20026;-49
2021/04/11 14:38:35;;;;;;;98.22;57.35;;;;;;;;;;4988387;28;20041;-49
2021/04/11 14:41:05;;;;;;;58.03;33.67;;;;;;;;;;4910125;29;20157;-50
2021/04/11 14:43:38;;;;;;;131.18;77.70;;;;;;;;;;4910157;29;20039;-52